sensor_id;sensor_type;location;lat;lon;timestamp;pressure;altitude;pressure_sealevel;temperature;humidity
60228;BME280;46091;46.512;6.626;2023-04-05T04:10:21;97029.44;;;5.44;44.24
60228;BME280;46091;46.512;6.626;2023-04-05T04:12:24;97020.88;;;5.68;43.96
60228;BME280;46091;46.512;6.626;2023-04-05T04:14:27;97026.75;;;5.96;43.69
60228;BME280;46091;46.512;6.626;2023-04-05T04:16:30;97032.56;;;6.16;43.55
60228;BME280;46091;46.512;6.626;2023-04-05T04:18:33;97034.22;;;6.33;43.41
60228;BME280;46091;46.512;6.626;2023-04-05T04:20:36;97026.41;;;6.50;43.08
60228;BME280;46091;46.512;6.626;2023-04-05T04:22:39;97035.78;;;6.60;43.10
60228;BME280;46091;46.512;6.626;2023-04-05T04:24:42;97040.88;;;6.70;42.89
60228;BME280;46091;46.512;6.626;2023-04-05T04:26:48;97037.25;;;6.79;42.72
60228;BME280;46091;46.512;6.626;2023-04-05T04:28:51;97037.25;;;6.79;42.78
60228;BME280;46091;46.512;6.626;2023-04-05T04:30:54;97035.63;;;6.86;42.78
60228;BME280;46091;46.512;6.626;2023-04-05T04:32:57;97035.63;;;6.94;42.67
60228;BME280;46091;46.512;6.626;2023-04-05T04:35:00;97033.50;;;6.98;42.70
60228;BME280;46091;46.512;6.626;2023-04-05T04:37:05;97036.94;;;7.07;42.59
60228;BME280;46091;46.512;6.626;2023-04-05T04:39:08;97035.31;;;7.06;42.38
60228;BME280;46091;46.512;6.626;2023-04-05T04:41:14;97039.41;;;7.00;42.56
60228;BME280;46091;46.512;6.626;2023-04-05T04:43:19;97039.25;;;7.01;42.51
60228;BME280;46091;46.512;6.626;2023-04-05T04:45:28;97036.94;;;7.07;42.45
60228;BME280;46091;46.512;6.626;2023-04-05T04:47:35;97027.56;;;7.12;42.24
60228;BME280;46091;46.512;6.626;2023-04-05T04:49:39;97046.47;;;7.16;42.37
60228;BME280;46091;46.512;6.626;2023-04-05T04:51:42;97034.31;;;7.15;42.25
60228;BME280;46091;46.512;6.626;2023-04-05T04:53:45;97044.50;;;7.18;42.25
60228;BME280;46091;46.512;6.626;2023-04-05T04:55:47;97040.72;;;7.20;42.09
60228;BME280;46091;46.512;6.626;2023-04-05T04:57:52;97040.72;;;7.20;42.22
60228;BME280;46091;46.512;6.626;2023-04-05T04:59:56;97034.47;;;7.21;42.02
60228;BME280;46091;46.512;6.626;2023-04-05T05:01:59;97032.66;;;7.22;42.11
60228;BME280;46091;46.512;6.626;2023-04-05T05:04:02;97039.06;;;7.27;42.16
60228;BME280;46091;46.512;6.626;2023-04-05T05:06:05;97042.00;;;7.33;41.93
60228;BME280;46091;46.512;6.626;2023-04-05T05:08:08;97045.63;;;7.32;41.99
60228;BME280;46091;46.512;6.626;2023-04-05T05:10:11;97053.69;;;7.30;41.95
60228;BME280;46091;46.512;6.626;2023-04-05T05:12:18;97056.31;;;7.30;41.86
60228;BME280;46091;46.512;6.626;2023-04-05T05:14:21;97061.41;;;7.32;41.99
60228;BME280;46091;46.512;6.626;2023-04-05T05:16:25;97052.88;;;7.29;41.74
60228;BME280;46091;46.512;6.626;2023-04-05T05:18:28;97053.34;;;7.33;42.01
60228;BME280;46091;46.512;6.626;2023-04-05T05:20:31;97054.50;;;7.30;41.90
60228;BME280;46091;46.512;6.626;2023-04-05T05:22:34;97055.03;;;7.26;41.90
60228;BME280;46091;46.512;6.626;2023-04-05T05:24:37;97055.84;;;7.26;41.94
60228;BME280;46091;46.512;6.626;2023-04-05T05:26:40;97059.78;;;7.30;41.76
60228;BME280;46091;46.512;6.626;2023-04-05T05:28:42;97060.59;;;7.31;41.82
60228;BME280;46091;46.512;6.626;2023-04-05T05:30:46;97059.59;;;7.32;41.65
60228;BME280;46091;46.512;6.626;2023-04-05T05:32:50;97064.53;;;7.35;41.79
60228;BME280;46091;46.512;6.626;2023-04-05T05:34:53;97063.56;;;7.36;41.74
60228;BME280;46091;46.512;6.626;2023-04-05T05:36:56;97066.84;;;7.38;41.69
60228;BME280;46091;46.512;6.626;2023-04-05T05:38:59;97069.47;;;7.38;41.53
60228;BME280;46091;46.512;6.626;2023-04-05T05:41:02;97071.94;;;7.40;41.69
60228;BME280;46091;46.512;6.626;2023-04-05T05:43:05;97070.78;;;7.34;41.68
60228;BME280;46091;46.512;6.626;2023-04-05T05:45:09;97068.66;;;7.29;41.71
60228;BME280;46091;46.512;6.626;2023-04-05T05:47:12;97071.13;;;7.31;41.60
60228;BME280;46091;46.512;6.626;2023-04-05T05:49:16;97070.13;;;7.32;41.81
60228;BME280;46091;46.512;6.626;2023-04-05T05:51:19;97068.16;;;7.34;41.54
60228;BME280;46091;46.512;6.626;2023-04-05T05:53:22;97070.94;;;7.41;41.56
60228;BME280;46091;46.512;6.626;2023-04-05T05:55:25;97071.75;;;7.41;41.57
60228;BME280;46091;46.512;6.626;2023-04-05T05:57:27;97078.31;;;7.45;41.43
60228;BME280;46091;46.512;6.626;2023-04-05T05:59:31;97073.88;;;7.46;41.38
60228;BME280;46091;46.512;6.626;2023-04-05T06:01:34;97080.94;;;7.45;41.63
60228;BME280;46091;46.512;6.626;2023-04-05T06:03:38;97072.25;;;7.45;41.51
60228;BME280;46091;46.512;6.626;2023-04-05T06:05:50;97078.84;;;7.49;41.69
60228;BME280;46091;46.512;6.626;2023-04-05T06:07:53;97084.56;;;7.52;41.52
60228;BME280;46091;46.512;6.626;2023-04-05T06:09:56;97088.19;;;7.51;41.42
60228;BME280;46091;46.512;6.626;2023-04-05T06:11:59;97087.38;;;7.51;41.57
60228;BME280;46091;46.512;6.626;2023-04-05T06:14:02;97081.28;;;7.50;41.53
60228;BME280;46091;46.512;6.626;2023-04-05T06:16:06;97090.66;;;7.53;41.40
60228;BME280;46091;46.512;6.626;2023-04-05T06:18:09;97083.41;;;7.55;41.56
60228;BME280;46091;46.512;6.626;2023-04-05T06:20:12;97087.50;;;7.57;41.47
60228;BME280;46091;46.512;6.626;2023-04-05T06:22:17;97083.06;;;7.58;41.31
60228;BME280;46091;46.512;6.626;2023-04-05T06:24:20;97088.31;;;7.58;41.16
60228;BME280;46091;46.512;6.626;2023-04-05T06:26:22;97091.28;;;7.63;41.28
60228;BME280;46091;46.512;6.626;2023-04-05T06:28:27;97086.69;;;7.65;41.25
60228;BME280;46091;46.512;6.626;2023-04-05T06:30:30;97087.16;;;7.69;41.41
60228;BME280;46091;46.512;6.626;2023-04-05T06:32:34;97094.41;;;7.67;41.38
60228;BME280;46091;46.512;6.626;2023-04-05T06:34:37;97096.56;;;7.71;41.34
60228;BME280;46091;46.512;6.626;2023-04-05T06:36:40;97103.47;;;7.72;41.33
60228;BME280;46091;46.512;6.626;2023-04-05T06:38:44;97102.81;;;7.70;41.29
60228;BME280;46091;46.512;6.626;2023-04-05T06:40:47;97102.47;;;7.73;41.44
60228;BME280;46091;46.512;6.626;2023-04-05T06:42:50;97102.28;;;7.75;41.26
60228;BME280;46091;46.512;6.626;2023-04-05T06:44:53;97109.84;;;7.78;41.09
60228;BME280;46091;46.512;6.626;2023-04-05T06:46:56;97117.75;;;7.78;41.08
60228;BME280;46091;46.512;6.626;2023-04-05T06:48:59;97109.03;;;7.77;41.22
60228;BME280;46091;46.512;6.626;2023-04-05T06:51:04;97106.22;;;7.79;41.10
60228;BME280;46091;46.512;6.626;2023-04-05T06:53:07;97114.44;;;7.84;40.95
60228;BME280;46091;46.512;6.626;2023-04-05T06:55:12;97108.66;;;7.88;40.92
60228;BME280;46091;46.512;6.626;2023-04-05T06:57:14;97109.50;;;7.89;40.98
60228;BME280;46091;46.512;6.626;2023-04-05T06:59:17;97108.31;;;7.92;41.00
60228;BME280;46091;46.512;6.626;2023-04-05T07:01:20;97109.16;;;7.92;41.15
60228;BME280;46091;46.512;6.626;2023-04-05T07:03:28;97107.19;;;7.94;41.16
60228;BME280;46091;46.512;6.626;2023-04-05T07:05:31;97103.56;;;7.95;41.13
60228;BME280;46091;46.512;6.626;2023-04-05T07:07:37;97104.88;;;7.99;41.07
60228;BME280;46091;46.512;6.626;2023-04-05T07:09:40;97103.88;;;8.00;41.06
60228;BME280;46091;46.512;6.626;2023-04-05T07:11:45;97103.88;;;8.00;41.19
60228;BME280;46091;46.512;6.626;2023-04-05T07:13:48;97101.88;;;8.02;40.98
60228;BME280;46091;46.512;6.626;2023-04-05T07:15:51;97095.47;;;8.05;41.06
60228;BME280;46091;46.512;6.626;2023-04-05T07:17:56;97105.50;;;8.09;40.91
60228;BME280;46091;46.512;6.626;2023-04-05T07:19:59;97103.84;;;8.08;41.05
60228;BME280;46091;46.512;6.626;2023-04-05T07:22:02;97099.22;;;8.10;40.91
60228;BME280;46091;46.512;6.626;2023-04-05T07:24:06;97099.88;;;8.12;40.97
60228;BME280;46091;46.512;6.626;2023-04-05T07:26:09;97103.97;;;8.15;41.10
60228;BME280;46091;46.512;6.626;2023-04-05T07:28:15;97106.78;;;8.13;41.18
60228;BME280;46091;46.512;6.626;2023-04-05T07:30:20;97110.59;;;8.11;41.24
60228;BME280;46091;46.512;6.626;2023-04-05T07:32:24;97103.31;;;8.13;41.02
60228;BME280;46091;46.512;6.626;2023-04-05T07:34:27;97106.47;;;8.16;41.07
60228;BME280;46091;46.512;6.626;2023-04-05T07:36:31;97108.75;;;8.20;41.37
60228;BME280;46091;46.512;6.626;2023-04-05T07:38:48;97108.06;;;8.26;41.12
60228;BME280;46091;46.512;6.626;2023-04-05T07:41:07;97106.56;;;8.31;41.31
60228;BME280;46091;46.512;6.626;2023-04-05T07:43:10;97113.47;;;8.32;41.13
60228;BME280;46091;46.512;6.626;2023-04-05T07:45:15;97119.41;;;8.34;41.29
60228;BME280;46091;46.512;6.626;2023-04-05T07:47:26;97115.28;;;8.32;41.17
60228;BME280;46091;46.512;6.626;2023-04-05T07:49:32;97111.38;;;8.28;41.34
60228;BME280;46091;46.512;6.626;2023-04-05T07:51:37;97121.41;;;8.24;41.27
60228;BME280;46091;46.512;6.626;2023-04-05T07:53:40;97126.66;;;8.24;41.38
60228;BME280;46091;46.512;6.626;2023-04-05T07:55:45;97127.00;;;8.29;41.51
60228;BME280;46091;46.512;6.626;2023-04-05T07:57:48;97131.72;;;8.34;41.66
60228;BME280;46091;46.512;6.626;2023-04-05T07:59:53;97124.50;;;8.36;41.35
60228;BME280;46091;46.512;6.626;2023-04-05T08:01:58;97133.41;;;8.35;41.35
60228;BME280;46091;46.512;6.626;2023-04-05T08:04:14;97125.00;;;8.39;41.43
60228;BME280;46091;46.512;6.626;2023-04-05T08:06:17;97121.56;;;8.39;41.51
60228;BME280;46091;46.512;6.626;2023-04-05T08:08:22;97130.94;;;8.41;41.33
60228;BME280;46091;46.512;6.626;2023-04-05T08:10:25;97125.81;;;8.40;41.44
60228;BME280;46091;46.512;6.626;2023-04-05T08:12:29;97129.47;;;8.39;41.66
60228;BME280;46091;46.512;6.626;2023-04-05T08:14:33;97129.94;;;8.42;41.47
60228;BME280;46091;46.512;6.626;2023-04-05T08:16:36;97125.47;;;8.43;41.50
60228;BME280;46091;46.512;6.626;2023-04-05T08:18:40;97118.22;;;8.45;41.45
60228;BME280;46091;46.512;6.626;2023-04-05T08:20:50;97121.66;;;8.45;41.56
60228;BME280;46091;46.512;6.626;2023-04-05T08:22:52;97127.41;;;8.49;41.42
60228;BME280;46091;46.512;6.626;2023-04-05T08:24:56;97121.50;;;8.47;41.26
60228;BME280;46091;46.512;6.626;2023-04-05T08:26:58;97120.69;;;8.46;41.62
60228;BME280;46091;46.512;6.626;2023-04-05T08:29:02;97126.78;;;8.47;41.41
60228;BME280;46091;46.512;6.626;2023-04-05T08:31:05;97122.31;;;8.48;41.56
60228;BME280;46091;46.512;6.626;2023-04-05T08:33:08;97129.72;;;8.52;41.50
60228;BME280;46091;46.512;6.626;2023-04-05T08:35:12;97126.06;;;8.61;41.52
60228;BME280;46091;46.512;6.626;2023-04-05T08:37:16;97117.16;;;8.62;41.40
60228;BME280;46091;46.512;6.626;2023-04-05T08:39:18;97121.13;;;8.58;41.62
60228;BME280;46091;46.512;6.626;2023-04-05T08:41:23;97123.56;;;8.60;41.43
60228;BME280;46091;46.512;6.626;2023-04-05T08:43:36;97117.47;;;8.59;41.45
60228;BME280;46091;46.512;6.626;2023-04-05T08:45:46;97112.22;;;8.59;41.66
60228;BME280;46091;46.512;6.626;2023-04-05T08:47:51;97105.63;;;8.63;41.66
60228;BME280;46091;46.512;6.626;2023-04-05T08:49:57;97112.88;;;8.61;41.52
60228;BME280;46091;46.512;6.626;2023-04-05T08:52:02;97111.72;;;8.64;41.68
60228;BME280;46091;46.512;6.626;2023-04-05T08:54:06;97121.72;;;8.68;41.75
60228;BME280;46091;46.512;6.626;2023-04-05T08:56:14;97120.41;;;8.72;41.62
60228;BME280;46091;46.512;6.626;2023-04-05T08:58:20;97120.88;;;8.76;41.63
60228;BME280;46091;46.512;6.626;2023-04-05T09:00:24;97120.34;;;8.81;41.75
60228;BME280;46091;46.512;6.626;2023-04-05T09:02:28;97125.94;;;8.86;41.60
60228;BME280;46091;46.512;6.626;2023-04-05T09:04:34;97117.66;;;8.89;41.51
60228;BME280;46091;46.512;6.626;2023-04-05T09:06:40;97122.56;;;8.92;41.86
60228;BME280;46091;46.512;6.626;2023-04-05T09:08:44;97115.78;;;8.97;41.69
60228;BME280;46091;46.512;6.626;2023-04-05T09:10:48;97115.63;;;8.99;41.62
60228;BME280;46091;46.512;6.626;2023-04-05T09:12:52;97128.25;;;9.03;41.52
60228;BME280;46091;46.512;6.626;2023-04-05T09:14:55;97116.06;;;9.02;41.63
60228;BME280;46091;46.512;6.626;2023-04-05T09:17:00;97114.78;;;8.98;41.60
60228;BME280;46091;46.512;6.626;2023-04-05T09:19:04;97113.81;;;8.99;41.74
60228;BME280;46091;46.512;6.626;2023-04-05T09:21:07;97114.91;;;9.05;41.58
60228;BME280;46091;46.512;6.626;2023-04-05T09:23:10;97107.66;;;9.07;41.71
60228;BME280;46091;46.512;6.626;2023-04-05T09:25:33;97109.75;;;9.12;41.76
60228;BME280;46091;46.512;6.626;2023-04-05T09:27:53;97107.56;;;9.15;41.68
60228;BME280;46091;46.512;6.626;2023-04-05T09:29:57;97103.78;;;9.18;41.62
60228;BME280;46091;46.512;6.626;2023-04-05T09:32:00;97101.31;;;9.16;41.73
60228;BME280;46091;46.512;6.626;2023-04-05T09:34:04;97104.94;;;9.15;41.83
60228;BME280;46091;46.512;6.626;2023-04-05T09:36:09;97102.94;;;9.17;41.68
60228;BME280;46091;46.512;6.626;2023-04-05T09:38:12;97107.88;;;9.20;41.86
60228;BME280;46091;46.512;6.626;2023-04-05T09:40:17;97104.06;;;9.23;41.58
60228;BME280;46091;46.512;6.626;2023-04-05T09:42:20;97107.34;;;9.25;41.75
60228;BME280;46091;46.512;6.626;2023-04-05T09:44:24;97115.72;;;9.28;41.78
60228;BME280;46091;46.512;6.626;2023-04-05T09:46:29;97107.47;;;9.31;41.51
60228;BME280;46091;46.512;6.626;2023-04-05T09:48:45;97109.56;;;9.36;41.88
60228;BME280;46091;46.512;6.626;2023-04-05T09:50:48;97107.38;;;9.40;41.66
60228;BME280;46091;46.512;6.626;2023-04-05T09:53:04;97100.13;;;9.42;41.75
60228;BME280;46091;46.512;6.626;2023-04-05T09:55:08;97113.97;;;9.44;41.51
60228;BME280;46091;46.512;6.626;2023-04-05T09:57:14;97108.69;;;9.44;41.69
60228;BME280;46091;46.512;6.626;2023-04-05T09:59:18;97107.03;;;9.43;41.74
60228;BME280;46091;46.512;6.626;2023-04-05T10:01:21;97102.03;;;9.48;41.63
60228;BME280;46091;46.512;6.626;2023-04-05T10:03:24;97112.41;;;9.49;41.77
60228;BME280;46091;46.512;6.626;2023-04-05T10:05:28;97102.53;;;9.51;41.74
60228;BME280;46091;46.512;6.626;2023-04-05T10:07:33;97101.53;;;9.52;41.59
60228;BME280;46091;46.512;6.626;2023-04-05T10:09:37;97105.81;;;9.53;41.76
60228;BME280;46091;46.512;6.626;2023-04-05T10:11:41;97106.63;;;9.54;41.75
60228;BME280;46091;46.512;6.626;2023-04-05T10:13:48;97107.25;;;9.56;41.50
60228;BME280;46091;46.512;6.626;2023-04-05T10:15:52;97104.63;;;9.56;41.90
60228;BME280;46091;46.512;6.626;2023-04-05T10:18:03;97106.44;;;9.55;41.80
60228;BME280;46091;46.512;6.626;2023-04-05T10:20:14;97097.34;;;9.58;41.81
60228;BME280;46091;46.512;6.626;2023-04-05T10:22:22;97098.16;;;9.58;41.79
60228;BME280;46091;46.512;6.626;2023-04-05T10:24:33;97092.41;;;9.55;41.80
60228;BME280;46091;46.512;6.626;2023-04-05T10:26:41;97099.97;;;9.58;41.98
60228;BME280;46091;46.512;6.626;2023-04-05T10:28:51;97102.44;;;9.59;41.68
60228;BME280;46091;46.512;6.626;2023-04-05T10:31:03;97102.06;;;9.62;41.95
60228;BME280;46091;46.512;6.626;2023-04-05T10:33:15;97095.63;;;9.65;41.65
60228;BME280;46091;46.512;6.626;2023-04-05T10:35:27;97095.00;;;9.63;41.59
60228;BME280;46091;46.512;6.626;2023-04-05T10:37:45;97087.72;;;9.65;41.69
60228;BME280;46091;46.512;6.626;2023-04-05T10:39:54;97087.78;;;9.72;41.62
60228;BME280;46091;46.512;6.626;2023-04-05T10:42:05;97089.09;;;9.76;41.68
60228;BME280;46091;46.512;6.626;2023-04-05T10:44:10;97081.63;;;9.79;41.43
60228;BME280;46091;46.512;6.626;2023-04-05T10:46:27;97087.81;;;9.86;41.29
60228;BME280;46091;46.512;6.626;2023-04-05T10:48:43;97092.28;;;9.86;41.43
60228;BME280;46091;46.512;6.626;2023-04-05T10:50:50;97080.91;;;9.85;41.39
60228;BME280;46091;46.512;6.626;2023-04-05T10:52:55;97084.53;;;9.84;41.28
60228;BME280;46091;46.512;6.626;2023-04-05T10:55:00;97088.63;;;9.87;41.34
60228;BME280;46091;46.512;6.626;2023-04-05T10:57:06;97087.97;;;9.85;41.45
60228;BME280;46091;46.512;6.626;2023-04-05T10:59:12;97085.81;;;9.88;41.39
60228;BME280;46091;46.512;6.626;2023-04-05T11:01:16;97076.50;;;9.92;41.38
60228;BME280;46091;46.512;6.626;2023-04-05T11:03:41;97089.00;;;9.99;40.96
60228;BME280;46091;46.512;6.626;2023-04-05T11:05:46;97083.34;;;10.02;41.27
60228;BME280;46091;46.512;6.626;2023-04-05T11:07:50;97075.69;;;10.07;41.31
60228;BME280;46091;46.512;6.626;2023-04-05T11:10:00;97079.81;;;10.09;40.93
60228;BME280;46091;46.512;6.626;2023-04-05T11:12:04;97075.53;;;10.08;41.09
60228;BME280;46091;46.512;6.626;2023-04-05T11:14:19;97068.13;;;10.04;41.25
60228;BME280;46091;46.512;6.626;2023-04-05T11:16:23;97068.88;;;9.98;41.01
60228;BME280;46091;46.512;6.626;2023-04-05T11:18:43;97061.59;;;10.00;41.39
60228;BME280;46091;46.512;6.626;2023-04-05T11:20:48;97068.50;;;10.01;41.42
60228;BME280;46091;46.512;6.626;2023-04-05T11:22:53;97065.13;;;10.07;41.16
60228;BME280;46091;46.512;6.626;2023-04-05T11:24:59;97060.13;;;10.12;41.15
60228;BME280;46091;46.512;6.626;2023-04-05T11:27:08;97069.31;;;10.16;41.07
60228;BME280;46091;46.512;6.626;2023-04-05T11:29:11;97067.31;;;10.18;41.15
60228;BME280;46091;46.512;6.626;2023-04-05T11:31:16;97067.31;;;10.18;41.31
60228;BME280;46091;46.512;6.626;2023-04-05T11:33:36;97058.22;;;10.20;41.20
60228;BME280;46091;46.512;6.626;2023-04-05T11:35:39;97055.41;;;10.22;40.94
60228;BME280;46091;46.512;6.626;2023-04-05T11:38:09;97051.38;;;10.26;40.83
60228;BME280;46091;46.512;6.626;2023-04-05T11:40:25;97058.59;;;10.32;41.10
60228;BME280;46091;46.512;6.626;2023-04-05T11:42:28;97054.56;;;10.36;41.02
60228;BME280;46091;46.512;6.626;2023-04-05T11:44:41;97051.91;;;10.36;40.90
60228;BME280;46091;46.512;6.626;2023-04-05T11:46:46;97051.91;;;10.36;41.03
60228;BME280;46091;46.512;6.626;2023-04-05T11:48:49;97052.56;;;10.38;40.85
60228;BME280;46091;46.512;6.626;2023-04-05T11:50:53;97046.25;;;10.39;40.48
60228;BME280;46091;46.512;6.626;2023-04-05T11:53:10;97052.31;;;10.33;40.56
60228;BME280;46091;46.512;6.626;2023-04-05T11:55:13;97046.38;;;10.31;40.59
60228;BME280;46091;46.512;6.626;2023-04-05T11:57:18;97051.47;;;10.33;40.46
60228;BME280;46091;46.512;6.626;2023-04-05T11:59:27;97049.91;;;10.38;40.55
60228;BME280;46091;46.512;6.626;2023-04-05T12:01:31;97050.38;;;10.42;40.80
60228;BME280;46091;46.512;6.626;2023-04-05T12:03:36;97046.34;;;10.46;40.82
60228;BME280;46091;46.512;6.626;2023-04-05T12:05:46;97044.31;;;10.48;40.56
60228;BME280;46091;46.512;6.626;2023-04-05T12:07:51;97048.41;;;10.50;40.50
60228;BME280;46091;46.512;6.626;2023-04-05T12:10:00;97036.22;;;10.49;40.60
60228;BME280;46091;46.512;6.626;2023-04-05T12:12:03;97042.31;;;10.50;40.47
60228;BME280;46091;46.512;6.626;2023-04-05T12:14:09;97042.78;;;10.54;40.38
60228;BME280;46091;46.512;6.626;2023-04-05T12:16:12;97035.91;;;10.59;40.34
60228;BME280;46091;46.512;6.626;2023-04-05T12:18:16;97038.81;;;10.64;39.96
60228;BME280;46091;46.512;6.626;2023-04-05T12:20:21;97034.38;;;10.65;39.97
60228;BME280;46091;46.512;6.626;2023-04-05T12:22:25;97032.34;;;10.67;40.22
60228;BME280;46091;46.512;6.626;2023-04-05T12:24:28;97023.41;;;10.68;39.91
60228;BME280;46091;46.512;6.626;2023-04-05T12:26:33;97026.91;;;10.75;39.73
60228;BME280;46091;46.512;6.626;2023-04-05T12:28:49;97024.53;;;10.80;39.94
60228;BME280;46091;46.512;6.626;2023-04-05T12:30:54;97029.06;;;10.86;39.76
60228;BME280;46091;46.512;6.626;2023-04-05T12:32:58;97021.13;;;10.86;39.81
60228;BME280;46091;46.512;6.626;2023-04-05T12:35:09;97023.41;;;10.89;39.77
60228;BME280;46091;46.512;6.626;2023-04-05T12:37:15;97016.72;;;10.93;39.67
60228;BME280;46091;46.512;6.626;2023-04-05T12:39:20;97024.06;;;10.98;39.58
60228;BME280;46091;46.512;6.626;2023-04-05T12:41:29;97026.56;;;10.99;39.75
60228;BME280;46091;46.512;6.626;2023-04-05T12:43:38;97023.25;;;10.97;40.00
60228;BME280;46091;46.512;6.626;2023-04-05T12:45:42;97021.25;;;10.99;39.78
60228;BME280;46091;46.512;6.626;2023-04-05T12:47:50;97021.88;;;11.01;39.93
60228;BME280;46091;46.512;6.626;2023-04-05T12:49:54;97014.78;;;11.02;39.61
60228;BME280;46091;46.512;6.626;2023-04-05T12:51:59;97014.56;;;11.03;39.83
60228;BME280;46091;46.512;6.626;2023-04-05T12:54:04;97011.94;;;11.03;39.78
60228;BME280;46091;46.512;6.626;2023-04-05T12:56:09;97013.56;;;11.04;39.55
60228;BME280;46091;46.512;6.626;2023-04-05T12:58:12;97011.94;;;11.03;39.38
60228;BME280;46091;46.512;6.626;2023-04-05T13:00:16;97011.94;;;11.03;39.42
60228;BME280;46091;46.512;6.626;2023-04-05T13:02:19;97013.56;;;11.04;39.57
60228;BME280;46091;46.512;6.626;2023-04-05T13:04:22;97016.44;;;11.09;39.64
60228;BME280;46091;46.512;6.626;2023-04-05T13:06:27;97014.44;;;11.12;39.18
60228;BME280;46091;46.512;6.626;2023-04-05T13:08:30;97008.78;;;11.15;39.50
60228;BME280;46091;46.512;6.626;2023-04-05T13:10:35;97007.38;;;11.19;39.04
60228;BME280;46091;46.512;6.626;2023-04-05T13:12:41;97007.16;;;11.20;38.80
60228;BME280;46091;46.512;6.626;2023-04-05T13:14:44;97005.59;;;11.26;39.21
60228;BME280;46091;46.512;6.626;2023-04-05T13:16:47;96999.09;;;11.28;38.78
60228;BME280;46091;46.512;6.626;2023-04-05T13:18:51;96999.72;;;11.30;38.68
60228;BME280;46091;46.512;6.626;2023-04-05T13:20:54;96998.28;;;11.28;38.98
60228;BME280;46091;46.512;6.626;2023-04-05T13:23:00;96994.22;;;11.32;38.85
60228;BME280;46091;46.512;6.626;2023-04-05T13:25:04;96997.34;;;11.35;38.75
60228;BME280;46091;46.512;6.626;2023-04-05T13:27:09;96997.94;;;11.37;38.54
60228;BME280;46091;46.512;6.626;2023-04-05T13:29:13;96992.25;;;11.41;38.66
60228;BME280;46091;46.512;6.626;2023-04-05T13:31:16;96991.44;;;11.40;38.72
60228;BME280;46091;46.512;6.626;2023-04-05T13:33:20;96988.41;;;11.43;38.85
60228;BME280;46091;46.512;6.626;2023-04-05T13:35:23;96988.03;;;11.46;38.60
60228;BME280;46091;46.512;6.626;2023-04-05T13:37:28;96987.41;;;11.44;38.33
60228;BME280;46091;46.512;6.626;2023-04-05T13:39:31;96986.56;;;11.44;38.11
60228;BME280;46091;46.512;6.626;2023-04-05T13:41:34;96983.09;;;11.43;38.07
60228;BME280;46091;46.512;6.626;2023-04-05T13:43:39;96982.13;;;11.44;38.20
60228;BME280;46091;46.512;6.626;2023-04-05T13:45:43;96987.03;;;11.47;37.88
60228;BME280;46091;46.512;6.626;2023-04-05T13:47:46;96984.56;;;11.46;37.89
60228;BME280;46091;46.512;6.626;2023-04-05T13:49:49;96971.53;;;11.44;37.94
60228;BME280;46091;46.512;6.626;2023-04-05T13:51:53;96964.56;;;11.43;37.97
60228;BME280;46091;46.512;6.626;2023-04-05T13:53:57;96973.59;;;11.49;37.87
60228;BME280;46091;46.512;6.626;2023-04-05T13:56:00;96972.19;;;11.53;37.70
60228;BME280;46091;46.512;6.626;2023-04-05T13:58:03;96974.47;;;11.56;37.47
60228;BME280;46091;46.512;6.626;2023-04-05T14:00:09;96969.97;;;11.56;37.74
60228;BME280;46091;46.512;6.626;2023-04-05T14:02:13;96965.31;;;11.58;37.48
60228;BME280;46091;46.512;6.626;2023-04-05T14:04:15;96970.81;;;11.63;37.75
60228;BME280;46091;46.512;6.626;2023-04-05T14:06:19;96970.44;;;11.66;37.67
60228;BME280;46091;46.512;6.626;2023-04-05T14:08:22;96965.97;;;11.67;37.41
60228;BME280;46091;46.512;6.626;2023-04-05T14:10:26;96969.59;;;11.66;37.13
60228;BME280;46091;46.512;6.626;2023-04-05T14:12:29;96964.50;;;11.64;37.62
60228;BME280;46091;46.512;6.626;2023-04-05T14:14:32;96962.50;;;11.66;37.29
60228;BME280;46091;46.512;6.626;2023-04-05T14:16:36;96968.22;;;11.70;37.34
60228;BME280;46091;46.512;6.626;2023-04-05T14:18:40;96964.97;;;11.75;37.27
60228;BME280;46091;46.512;6.626;2023-04-05T14:20:43;96957.63;;;11.77;37.17
60228;BME280;46091;46.512;6.626;2023-04-05T14:22:46;96960.28;;;11.77;36.94
60228;BME280;46091;46.512;6.626;2023-04-05T14:24:49;96954.81;;;11.78;37.17
60228;BME280;46091;46.512;6.626;2023-04-05T14:26:52;96955.63;;;11.79;37.11
60228;BME280;46091;46.512;6.626;2023-04-05T14:28:55;96952.00;;;11.80;36.87
60228;BME280;46091;46.512;6.626;2023-04-05T14:30:58;96959.53;;;11.83;36.79
60228;BME280;46091;46.512;6.626;2023-04-05T14:33:02;96954.03;;;11.84;36.85
60228;BME280;46091;46.512;6.626;2023-04-05T14:35:07;96955.88;;;11.84;36.81
60228;BME280;46091;46.512;6.626;2023-04-05T14:37:10;96947.94;;;11.84;36.93
60228;BME280;46091;46.512;6.626;2023-04-05T14:39:13;96944.47;;;11.83;36.41
60228;BME280;46091;46.512;6.626;2023-04-05T14:41:16;96945.91;;;11.86;36.46
60228;BME280;46091;46.512;6.626;2023-04-05T14:43:19;96942.22;;;11.87;36.72
60228;BME280;46091;46.512;6.626;2023-04-05T14:45:22;96936.72;;;11.88;36.39
60228;BME280;46091;46.512;6.626;2023-04-05T14:47:27;96939.22;;;11.90;36.35
60228;BME280;46091;46.512;6.626;2023-04-05T14:49:32;96931.06;;;11.91;36.03
60228;BME280;46091;46.512;6.626;2023-04-05T14:51:35;96937.59;;;11.95;36.14
60228;BME280;46091;46.512;6.626;2023-04-05T14:53:38;96936.78;;;11.95;36.20
60228;BME280;46091;46.512;6.626;2023-04-05T14:55:41;96933.09;;;11.96;35.90
60228;BME280;46091;46.512;6.626;2023-04-05T14:57:45;96934.75;;;11.97;36.15
60228;BME280;46091;46.512;6.626;2023-04-05T14:59:47;96932.91;;;11.98;36.09
60228;BME280;46091;46.512;6.626;2023-04-05T15:01:52;96925.78;;;11.98;35.78
60228;BME280;46091;46.512;6.626;2023-04-05T15:03:55;96924.75;;;11.99;35.86
60228;BME280;46091;46.512;6.626;2023-04-05T15:05:59;96930.69;;;12.01;35.84
60228;BME280;46091;46.512;6.626;2023-04-05T15:08:02;96928.66;;;12.03;35.86
60228;BME280;46091;46.512;6.626;2023-04-05T15:10:05;96927.63;;;12.04;35.85
60228;BME280;46091;46.512;6.626;2023-04-05T15:12:08;96926.63;;;12.05;36.25
60228;BME280;46091;46.512;6.626;2023-04-05T15:14:11;96926.81;;;12.04;35.97
60228;BME280;46091;46.512;6.626;2023-04-05T15:16:31;96921.53;;;12.04;35.79
60228;BME280;46091;46.512;6.626;2023-04-05T15:18:37;96917.84;;;12.05;36.12